Date,TemperatureHighF,TemperatureAvgF,TemperatureLowF,DewpointHighF,DewpointAvgF,DewpointLowF,HumidityHigh,HumidityAvg,HumidityLow,PressureMaxIn,PressureMinIn,WindSpeedMaxMPH,WindSpeedAvgMPH,GustSpeedMaxMPH,PrecipitationSumIn
2013-1-1,28.4,24.2,14.5,21.0,15.7,6.0,82,73,67,29.95,29.84,14,2,14,0.00
2013-1-2,22.4,15.6,10.5,12.0,5.9,3.0,79,68,54,29.98,29.90,16,4,16,0.00
2013-1-3,29.4,23.5,14.0,23.0,16.4,5.0,89,78,68,30.01,29.88,19,7,19,0.00
2013-1-4,30.2,21.7,13.1,21.0,15.2,7.0,87,79,67,30.02,29.91,23,8,25,0.00
2013-1-5,33.4,27.6,19.1,30.0,22.4,15.0,95,85,73,30.05,29.77,22,6,22,0.00
2013-1-6,34.2,30.1,24.3,30.0,24.3,19.0,88,82,75,30.13,29.70,24,7,24,0.01
2013-1-7,33.8,25.5,16.5,24.0,19.2,13.0,94,81,63,30.16,29.91,25,6,27,0.00
2013-1-8,36.6,30.7,24.7,27.0,23.7,20.0,88,78,68,29.98,29.86,20,5,20,0.00
2013-1-9,48.9,39.5,29.0,33.0,24.9,14.0,80,61,30,30.29,29.84,24,8,24,0.00
2013-1-10,40.1,33.6,25.3,39.0,26.2,20.0,96,78,56,30.31,29.75,21,6,23,0.27
2013-1-11,52.5,48.1,39.7,51.0,45.5,39.0,96,91,84,29.75,29.48,25,8,25,0.59
2013-1-12,55.2,47.6,35.0,47.0,41.4,31.0,93,80,54,29.73,29.56,23,6,23,0.24
2013-1-13,35.0,28.6,15.5,34.0,25.8,9.0,97,91,81,30.03,29.61,24,7,26,0.12
2013-1-14,22.7,18.1,13.2,15.0,11.7,7.0,86,80,71,30.23,30.02,16,3,16,0.00
2013-1-15,28.7,21.2,13.4,19.0,14.5,9.0,92,80,59,30.20,29.88,10,0,10,0.00
2013-1-16,34.2,27.6,19.0,25.0,19.1,11.0,92,75,50,29.88,29.63,28,7,28,0.00
2013-1-17,33.1,27.6,20.2,28.0,16.6,9.0,85,66,54,30.16,29.82,23,4,26,0.00
2013-1-18,37.2,28.5,18.2,26.0,18.1,10.0,84,68,55,30.20,29.75,32,8,35,0.00
2013-1-19,46.5,40.4,34.8,35.0,28.8,17.0,75,65,46,29.76,29.52,27,11,28,0.00
2013-1-20,33.3,19.2,15.8,18.0,6.1,1.0,75,59,40,30.07,29.61,0,0,0,0.00
2013-1-21,16.3,10.3,5.5,7.0,-0.9,-6.0,86,63,52,30.01,29.87,0,0,0,0.00
2013-1-22,10.0,5.7,0.6,0.0,-4.0,-8.0,85,68,48,30.12,30.00,0,0,0,0.00
2013-1-23,20.0,14.2,7.7,14.0,3.9,-4.0,90,66,55,30.10,29.85,0,0,0,0.00
2013-1-24,17.5,14.7,10.7,12.0,4.8,-2.0,90,69,47,30.38,30.01,0,0,0,0.00
2013-1-25,25.7,20.3,15.8,19.0,13.1,5.0,89,77,62,30.17,29.76,0,0,0,0.00
2013-1-26,24.7,22.3,19.0,18.0,14.7,12.0,86,76,64,30.20,29.89,0,0,0,0.00
2013-1-27,34.1,26.8,20.6,33.0,20.6,14.0,95,80,69,30.19,29.77,0,0,0,0.00
2013-1-28,48.3,41.9,34.2,47.0,40.9,33.0,98,97,95,29.77,29.64,0,0,0,0.36
2013-1-29,58.0,54.5,40.4,56.0,52.8,39.0,99,95,86,29.69,29.17,0,0,0,1.13
2013-1-30,52.4,38.1,22.7,51.0,35.8,17.0,99,93,77,29.34,28.94,0,0,0,0.54
2013-1-31,22.6,15.0,8.0,18.0,9.0,3.0,91,81,66,29.87,29.35,0,0,0,0.00